National Weather Service Raw Text Product

Displaying AFOS PIL: TAFMCW Received: 2017-10-13 02:59 UTC


425 
FTUS43 KDMX 130259 AAA
TAFMCW
TAF AMD
KMCW 130259Z 1303/1324 18008KT P6SM BKN012
     FM130500 19007KT P6SM BKN010
     FM131000 22005KT P6SM BKN009
     FM131300 31006KT P6SM BKN012
     FM131500 35007KT P6SM BKN022
     FM131600 01009KT P6SM BKN035=